Time;durP1;ratioP1;P1;durP2;ratioP2;P2;SDS_P1;SDS_P2;PMS_P1;PMS_P2;Temp;Humidity;BMP_temperature;BMP_pressure;BME280_temperature;BME280_humidity;BME280_pressure;Samples;Min_cycle;Max_cycle;Signal;HPM_P1;HPM_P2
2021/06/22 00:00:41;;;;;;;10.18;5.20;;;;;;;;;;5064860;28;20184;-71
2021/06/22 00:03:07;;;;;;;11.00;5.13;;;;;;;;;;5061846;28;20689;-71
2021/06/22 00:05:32;;;;;;;7.03;4.13;;;;;;;;;;5061113;28;20184;-72
2021/06/22 00:07:58;;;;;;;10.60;4.60;;;;;;;;;;5066163;28;20180;-71
2021/06/22 00:10:25;;;;;;;6.07;4.17;;;;;;;;;;5062015;28;20190;-71
2021/06/22 00:12:50;;;;;;;10.63;4.97;;;;;;;;;;5070341;28;20193;-70
2021/06/22 00:15:16;;;;;;;8.23;4.40;;;;;;;;;;5065129;28;20393;-71
2021/06/22 00:17:42;;;;;;;6.90;4.33;;;;;;;;;;5063299;28;20647;-72
2021/06/22 00:20:08;;;;;;;7.30;4.15;;;;;;;;;;5061993;28;20188;-71
2021/06/22 00:22:34;;;;;;;8.07;4.33;;;;;;;;;;5062600;28;20177;-71
2021/06/22 00:24:59;;;;;;;9.53;4.67;;;;;;;;;;5068706;28;20220;-72
2021/06/22 00:27:24;;;;;;;11.87;5.53;;;;;;;;;;5054564;28;20180;-71
2021/06/22 00:29:50;;;;;;;9.17;5.10;;;;;;;;;;5053146;28;20185;-71
2021/06/22 00:32:17;;;;;;;8.47;4.83;;;;;;;;;;5060653;28;20227;-71
2021/06/22 00:34:42;;;;;;;6.83;4.20;;;;;;;;;;5064964;28;20229;-71
2021/06/22 00:37:07;;;;;;;8.33;4.10;;;;;;;;;;5063076;28;20662;-71
2021/06/22 00:39:32;;;;;;;9.07;4.30;;;;;;;;;;5063661;28;20674;-71
2021/06/22 00:41:58;;;;;;;9.20;4.47;;;;;;;;;;5057983;28;20178;-71
2021/06/22 00:44:23;;;;;;;6.67;3.97;;;;;;;;;;5071621;28;20204;-71
2021/06/22 00:46:48;;;;;;;8.30;5.17;;;;;;;;;;5064490;28;20200;-71
2021/06/22 00:49:13;;;;;;;7.60;3.77;;;;;;;;;;5062492;28;20180;-71
2021/06/22 00:51:39;;;;;;;6.87;3.50;;;;;;;;;;5066217;28;20181;-71
2021/06/22 00:54:04;;;;;;;8.57;3.73;;;;;;;;;;5064518;28;20208;-71
2021/06/22 00:56:30;;;;;;;7.00;4.37;;;;;;;;;;5068774;28;20181;-72
2021/06/22 00:58:56;;;;;;;6.30;3.87;;;;;;;;;;5065137;28;20222;-72
2021/06/22 01:01:21;;;;;;;4.90;3.60;;;;;;;;;;5065220;28;20173;-71
2021/06/22 01:03:46;;;;;;;6.68;4.20;;;;;;;;;;5059631;28;20205;-71
2021/06/22 01:06:11;;;;;;;8.30;4.07;;;;;;;;;;5071262;28;20199;-71
2021/06/22 01:08:37;;;;;;;8.70;4.85;;;;;;;;;;5063542;28;21013;-71
2021/06/22 01:11:02;;;;;;;11.23;4.80;;;;;;;;;;5065649;28;20205;-71
2021/06/22 01:13:28;;;;;;;7.60;4.00;;;;;;;;;;5059948;28;20291;-71
2021/06/22 01:15:53;;;;;;;9.00;4.80;;;;;;;;;;5068100;28;20213;-70
2021/06/22 01:18:18;;;;;;;6.03;4.50;;;;;;;;;;5062082;28;20212;-70
2021/06/22 01:20:43;;;;;;;9.47;4.13;;;;;;;;;;5064239;28;20174;-71
2021/06/22 01:23:09;;;;;;;13.57;4.95;;;;;;;;;;5061721;28;20379;-71
2021/06/22 01:25:35;;;;;;;17.47;4.80;;;;;;;;;;5065170;28;20177;-71
2021/06/22 01:28:00;;;;;;;9.50;4.83;;;;;;;;;;5066064;28;20648;-71
2021/06/22 01:30:26;;;;;;;7.10;4.03;;;;;;;;;;5060125;28;20304;-72
2021/06/22 01:32:52;;;;;;;7.23;4.17;;;;;;;;;;5063929;28;20181;-71
2021/06/22 01:35:17;;;;;;;8.13;4.37;;;;;;;;;;5063347;28;20596;-71
2021/06/22 01:37:58;;;;;;;8.83;4.53;;;;;;;;;;5070400;28;20165;-71
2021/06/22 01:40:24;;;;;;;9.80;4.73;;;;;;;;;;5060388;28;20272;-71
2021/06/22 01:42:50;;;;;;;8.47;3.87;;;;;;;;;;5058121;28;20264;-71
2021/06/22 01:45:15;;;;;;;8.70;4.40;;;;;;;;;;5060168;28;20326;-71
2021/06/22 01:47:41;;;;;;;8.50;4.63;;;;;;;;;;5061560;28;20264;-71
2021/06/22 01:50:06;;;;;;;10.07;4.20;;;;;;;;;;5064686;28;20184;-71
2021/06/22 01:52:31;;;;;;;12.37;6.90;;;;;;;;;;5067864;28;20184;-71
2021/06/22 01:54:59;;;;;;;6.20;3.90;;;;;;;;;;5057052;28;20205;-71
2021/06/22 01:57:25;;;;;;;8.33;4.30;;;;;;;;;;5054596;28;20218;-71
2021/06/22 01:59:50;;;;;;;10.93;5.37;;;;;;;;;;5061722;28;20223;-71
2021/06/22 02:02:15;;;;;;;8.40;4.27;;;;;;;;;;5056532;28;20185;-71
2021/06/22 02:04:41;;;;;;;9.83;5.47;;;;;;;;;;5062609;28;20205;-71
2021/06/22 02:07:06;;;;;;;7.10;4.47;;;;;;;;;;5058709;28;20174;-71
2021/06/22 02:09:31;;;;;;;6.03;4.60;;;;;;;;;;5064159;28;20716;-71
2021/06/22 02:11:56;;;;;;;8.40;4.90;;;;;;;;;;5059156;28;20189;-70
2021/06/22 02:14:21;;;;;;;6.93;4.50;;;;;;;;;;5059781;28;20220;-71
2021/06/22 02:16:47;;;;;;;9.97;4.60;;;;;;;;;;5074677;28;20193;-71
2021/06/22 02:19:12;;;;;;;8.33;4.87;;;;;;;;;;5061199;28;20176;-71
2021/06/22 02:21:37;;;;;;;7.27;4.60;;;;;;;;;;5063370;28;20199;-71
2021/06/22 02:24:02;;;;;;;10.43;5.30;;;;;;;;;;5067369;28;20197;-72
2021/06/22 02:26:28;;;;;;;7.63;5.00;;;;;;;;;;5057681;28;20181;-71
2021/06/22 02:28:53;;;;;;;8.13;4.73;;;;;;;;;;5088381;28;20192;-71
2021/06/22 02:31:18;;;;;;;7.40;4.57;;;;;;;;;;5091278;28;20174;-72
2021/06/22 02:33:43;;;;;;;8.33;4.73;;;;;;;;;;5094993;28;20264;-70
2021/06/22 02:36:09;;;;;;;7.63;5.23;;;;;;;;;;5089610;28;20198;-71
2021/06/22 02:38:34;;;;;;;7.73;4.47;;;;;;;;;;5090237;28;20215;-71
2021/06/22 02:40:59;;;;;;;7.70;4.40;;;;;;;;;;5081407;28;20193;-71
2021/06/22 02:43:25;;;;;;;6.60;4.50;;;;;;;;;;5078555;28;20196;-71
2021/06/22 02:45:50;;;;;;;10.00;4.90;;;;;;;;;;5082606;28;20184;-71
2021/06/22 02:48:15;;;;;;;6.13;4.30;;;;;;;;;;5076406;28;20169;-71
2021/06/22 02:50:41;;;;;;;8.40;4.63;;;;;;;;;;5063065;28;20178;-71
2021/06/22 02:53:07;;;;;;;7.40;4.40;;;;;;;;;;5067961;28;20552;-71
2021/06/22 02:55:32;;;;;;;6.63;5.10;;;;;;;;;;5071699;28;20339;-71
2021/06/22 02:57:58;;;;;;;8.47;4.80;;;;;;;;;;5061505;28;20185;-71
2021/06/22 03:00:24;;;;;;;7.00;4.03;;;;;;;;;;5065173;28;20664;-71
2021/06/22 03:02:50;;;;;;;7.87;4.73;;;;;;;;;;5064323;28;20216;-71
2021/06/22 03:05:15;;;;;;;7.37;5.03;;;;;;;;;;5069508;28;20228;-71
2021/06/22 03:07:40;;;;;;;9.67;4.27;;;;;;;;;;5064430;28;20235;-71
2021/06/22 03:10:07;;;;;;;7.00;5.13;;;;;;;;;;5069605;28;20713;-71
2021/06/22 03:12:32;;;;;;;9.37;4.87;;;;;;;;;;5060664;28;20239;-71
2021/06/22 03:14:57;;;;;;;6.93;4.50;;;;;;;;;;5071514;28;20619;-71
2021/06/22 03:17:22;;;;;;;5.80;4.80;;;;;;;;;;5066597;28;20612;-71
2021/06/22 03:19:48;;;;;;;11.95;5.25;;;;;;;;;;5073412;28;20181;-71
2021/06/22 03:22:13;;;;;;;7.78;5.00;;;;;;;;;;5062433;28;20268;-71
2021/06/22 03:24:38;;;;;;;9.10;5.25;;;;;;;;;;5070351;28;20204;-71
2021/06/22 03:27:03;;;;;;;8.07;4.73;;;;;;;;;;5069120;28;20203;-70
2021/06/22 03:29:28;;;;;;;7.20;4.63;;;;;;;;;;5062085;28;20173;-71
2021/06/22 03:31:54;;;;;;;11.18;5.10;;;;;;;;;;5066002;28;20306;-71
2021/06/22 03:34:19;;;;;;;8.93;5.13;;;;;;;;;;5062403;28;20705;-73
2021/06/22 03:36:44;;;;;;;6.13;4.40;;;;;;;;;;5061656;28;20220;-71
2021/06/22 03:39:09;;;;;;;10.50;4.90;;;;;;;;;;5066534;28;20185;-73
2021/06/22 03:41:35;;;;;;;7.53;4.18;;;;;;;;;;5064091;28;20192;-73
2021/06/22 03:44:00;;;;;;;11.85;3.95;;;;;;;;;;5071624;28;20338;-73
2021/06/22 03:46:25;;;;;;;6.35;4.15;;;;;;;;;;5065293;28;20670;-72
2021/06/22 03:48:51;;;;;;;8.82;4.03;;;;;;;;;;5071914;28;20234;-72
2021/06/22 03:51:16;;;;;;;7.43;3.78;;;;;;;;;;5064260;28;20185;-72
2021/06/22 03:53:42;;;;;;;15.13;5.28;;;;;;;;;;5067218;28;20201;-72
2021/06/22 03:56:08;;;;;;;10.50;3.90;;;;;;;;;;5064128;28;20253;-73
2021/06/22 03:58:33;;;;;;;6.82;3.80;;;;;;;;;;5072689;28;20189;-73
2021/06/22 04:00:59;;;;;;;6.30;4.03;;;;;;;;;;5069643;28;20204;-73
2021/06/22 04:03:24;;;;;;;8.25;3.95;;;;;;;;;;5062463;28;20189;-72
2021/06/22 04:05:49;;;;;;;15.48;4.25;;;;;;;;;;5060384;28;20212;-72
2021/06/22 04:08:14;;;;;;;7.78;4.05;;;;;;;;;;5066086;28;20604;-73
2021/06/22 04:10:39;;;;;;;8.00;4.17;;;;;;;;;;5061743;28;20266;-72
2021/06/22 04:13:05;;;;;;;11.38;4.63;;;;;;;;;;5059016;28;20189;-72
2021/06/22 04:15:30;;;;;;;10.03;5.00;;;;;;;;;;5070094;28;20770;-72
2021/06/22 04:18:05;;;;;;;8.65;4.43;;;;;;;;;;5065246;28;20173;-72
2021/06/22 04:20:31;;;;;;;8.55;5.00;;;;;;;;;;5066537;28;20776;-73
2021/06/22 04:22:56;;;;;;;7.73;5.13;;;;;;;;;;5066580;28;20181;-72
2021/06/22 04:25:21;;;;;;;9.88;5.63;;;;;;;;;;5062549;28;20261;-72
2021/06/22 04:27:47;;;;;;;12.82;6.07;;;;;;;;;;5058253;28;20188;-70
2021/06/22 04:30:12;;;;;;;9.02;5.90;;;;;;;;;;5058374;28;20177;-72
2021/06/22 04:32:37;;;;;;;13.18;7.00;;;;;;;;;;5063323;28;20177;-73
2021/06/22 04:35:03;;;;;;;11.93;6.68;;;;;;;;;;5062049;28;20196;-72
2021/06/22 04:37:28;;;;;;;12.68;7.28;;;;;;;;;;5062007;28;20704;-72
2021/06/22 04:39:53;;;;;;;8.40;7.25;;;;;;;;;;5058359;28;20189;-70
2021/06/22 04:42:19;;;;;;;11.85;7.65;;;;;;;;;;5062426;28;20520;-71
2021/06/22 04:44:44;;;;;;;11.75;7.55;;;;;;;;;;5062410;28;20197;-73
2021/06/22 04:47:09;;;;;;;10.95;8.00;;;;;;;;;;5065006;28;20275;-71
2021/06/22 04:49:34;;;;;;;10.65;8.60;;;;;;;;;;5059887;28;20660;-71
2021/06/22 04:52:00;;;;;;;12.02;8.93;;;;;;;;;;5062778;28;20182;-71
2021/06/22 04:54:25;;;;;;;10.50;8.75;;;;;;;;;;5063278;28;20246;-71
2021/06/22 04:56:51;;;;;;;12.68;9.88;;;;;;;;;;5058755;28;20655;-73
2021/06/22 04:59:16;;;;;;;16.92;11.15;;;;;;;;;;5050512;28;20169;-71
2021/06/22 05:01:41;;;;;;;12.88;10.63;;;;;;;;;;5044244;28;20174;-71
2021/06/22 05:04:07;;;;;;;11.77;9.93;;;;;;;;;;5058944;28;20197;-71
2021/06/22 05:06:32;;;;;;;12.27;9.80;;;;;;;;;;5065282;28;20185;-71
2021/06/22 05:08:57;;;;;;;15.85;9.95;;;;;;;;;;5065499;28;20177;-72
2021/06/22 05:11:22;;;;;;;10.45;8.82;;;;;;;;;;5060911;28;20189;-70
2021/06/22 05:13:48;;;;;;;13.65;9.70;;;;;;;;;;5060584;28;20216;-70
2021/06/22 05:16:15;;;;;;;14.90;9.10;;;;;;;;;;5058549;28;20200;-71
2021/06/22 05:18:40;;;;;;;10.95;8.65;;;;;;;;;;5059176;28;20559;-71
2021/06/22 05:21:05;;;;;;;16.52;9.82;;;;;;;;;;5062110;28;20169;-71
2021/06/22 05:23:30;;;;;;;15.07;9.00;;;;;;;;;;5053728;28;20576;-71
2021/06/22 05:25:55;;;;;;;15.35;9.95;;;;;;;;;;5056067;28;20181;-71
2021/06/22 05:28:21;;;;;;;13.07;9.50;;;;;;;;;;5061220;28;20216;-69
2021/06/22 05:30:46;;;;;;;20.48;8.82;;;;;;;;;;5060571;28;20257;-71
2021/06/22 05:33:11;;;;;;;11.27;9.07;;;;;;;;;;5064688;28;20297;-70
2021/06/22 05:35:36;;;;;;;14.88;9.60;;;;;;;;;;5061278;28;20208;-71
2021/06/22 05:38:02;;;;;;;16.38;9.95;;;;;;;;;;5055253;28;20182;-70
2021/06/22 05:40:27;;;;;;;16.77;9.35;;;;;;;;;;5056876;28;20189;-72
2021/06/22 05:42:52;;;;;;;14.75;10.13;;;;;;;;;;5059395;28;20170;-71
2021/06/22 05:45:18;;;;;;;12.73;10.07;;;;;;;;;;5062078;28;20517;-71
2021/06/22 05:47:43;;;;;;;10.48;9.02;;;;;;;;;;5060003;28;20184;-71
2021/06/22 05:50:09;;;;;;;16.75;10.15;;;;;;;;;;5057454;28;20647;-71
2021/06/22 05:52:34;;;;;;;16.08;9.93;;;;;;;;;;5057419;28;20187;-71
2021/06/22 05:54:59;;;;;;;18.70;10.32;;;;;;;;;;5059663;28;20196;-70
2021/06/22 05:57:24;;;;;;;14.57;10.88;;;;;;;;;;5056815;28;20324;-70
2021/06/22 05:59:50;;;;;;;15.93;10.43;;;;;;;;;;5055811;28;20608;-69
2021/06/22 06:02:15;;;;;;;19.80;10.63;;;;;;;;;;5045122;28;20180;-70
2021/06/22 06:04:41;;;;;;;15.77;10.60;;;;;;;;;;5043021;28;20292;-70
2021/06/22 06:07:07;;;;;;;14.73;10.25;;;;;;;;;;5049083;28;20255;-70
2021/06/22 06:09:32;;;;;;;20.70;10.52;;;;;;;;;;5043193;28;20188;-70
2021/06/22 06:11:57;;;;;;;23.02;11.48;;;;;;;;;;5048480;28;20199;-70
2021/06/22 06:14:22;;;;;;;21.45;9.98;;;;;;;;;;5043683;28;20586;-70
2021/06/22 06:16:48;;;;;;;16.08;9.52;;;;;;;;;;5043860;28;20531;-71
2021/06/22 06:19:13;;;;;;;12.93;9.77;;;;;;;;;;5043790;28;20177;-70
2021/06/22 06:21:39;;;;;;;18.15;10.00;;;;;;;;;;5047009;28;20636;-70
2021/06/22 06:24:05;;;;;;;16.00;9.70;;;;;;;;;;5043673;28;20204;-70
2021/06/22 06:26:35;;;;;;;14.45;11.05;;;;;;;;;;5047327;28;20220;-70
2021/06/22 06:29:14;;;;;;;23.10;10.27;;;;;;;;;;5045747;28;20189;-71
2021/06/22 06:31:40;;;;;;;23.08;11.00;;;;;;;;;;5048378;28;20231;-71
2021/06/22 06:34:05;;;;;;;24.42;10.73;;;;;;;;;;5047543;28;20198;-71
2021/06/22 06:36:30;;;;;;;21.00;9.95;;;;;;;;;;5050460;28;20625;-72
2021/06/22 06:38:55;;;;;;;16.55;9.65;;;;;;;;;;5050016;28;20194;-71
2021/06/22 06:41:20;;;;;;;14.75;10.82;;;;;;;;;;5054416;28;20169;-70
2021/06/22 06:43:46;;;;;;;14.95;9.65;;;;;;;;;;5047311;28;20915;-70
2021/06/22 06:46:11;;;;;;;14.48;9.95;;;;;;;;;;5057817;28;20176;-71
2021/06/22 06:48:38;;;;;;;10.75;9.52;;;;;;;;;;5047977;28;20868;-70
2021/06/22 06:51:05;;;;;;;14.98;10.50;;;;;;;;;;5049143;28;20204;-72
2021/06/22 06:53:30;;;;;;;12.27;10.95;;;;;;;;;;5047719;28;20201;-71
2021/06/22 06:55:55;;;;;;;17.17;10.40;;;;;;;;;;5051954;28;20216;-71
2021/06/22 06:58:20;;;;;;;12.77;10.15;;;;;;;;;;5044706;28;20229;-70
2021/06/22 07:00:46;;;;;;;12.63;9.20;;;;;;;;;;5046300;28;20665;-71
2021/06/22 07:03:12;;;;;;;13.40;9.98;;;;;;;;;;5048533;28;20176;-70
2021/06/22 07:05:37;;;;;;;16.13;11.00;;;;;;;;;;5068764;28;20242;-69
2021/06/22 07:08:03;;;;;;;15.80;10.50;;;;;;;;;;5077102;28;20189;-69
2021/06/22 07:10:29;;;;;;;19.60;10.85;;;;;;;;;;5078137;28;20192;-70
2021/06/22 07:12:57;;;;;;;12.32;10.32;;;;;;;;;;5080510;28;20224;-71
2021/06/22 07:15:22;;;;;;;15.10;10.55;;;;;;;;;;5075438;28;20196;-71
2021/06/22 07:17:48;;;;;;;17.33;10.63;;;;;;;;;;5082293;28;20233;-70
2021/06/22 07:20:13;;;;;;;13.30;10.68;;;;;;;;;;5081972;28;20173;-71
2021/06/22 07:22:39;;;;;;;17.13;10.75;;;;;;;;;;5086777;28;20168;-71
2021/06/22 07:25:04;;;;;;;13.32;9.80;;;;;;;;;;5085176;28;20202;-70
2021/06/22 07:27:29;;;;;;;16.50;10.73;;;;;;;;;;5084174;28;20208;-71
2021/06/22 07:29:55;;;;;;;14.52;10.70;;;;;;;;;;5080543;28;20185;-70
2021/06/22 07:32:20;;;;;;;14.93;10.45;;;;;;;;;;5065618;28;20192;-70
2021/06/22 07:34:45;;;;;;;14.93;9.70;;;;;;;;;;5054130;28;20340;-71
2021/06/22 07:37:10;;;;;;;12.80;10.45;;;;;;;;;;5054889;28;20544;-70
2021/06/22 07:39:36;;;;;;;13.63;10.80;;;;;;;;;;5054291;28;20686;-71
2021/06/22 07:42:01;;;;;;;15.98;10.50;;;;;;;;;;5058030;28;20426;-71
2021/06/22 07:44:27;;;;;;;21.40;10.00;;;;;;;;;;5055151;28;20779;-71
2021/06/22 07:46:52;;;;;;;15.32;9.80;;;;;;;;;;5055026;28;20188;-70
2021/06/22 07:49:17;;;;;;;16.13;10.75;;;;;;;;;;5053102;28;20291;-71
2021/06/22 07:51:42;;;;;;;16.02;10.73;;;;;;;;;;5058039;28;20211;-71
2021/06/22 07:54:08;;;;;;;14.43;10.30;;;;;;;;;;5054505;28;20211;-70
2021/06/22 07:56:33;;;;;;;15.30;10.25;;;;;;;;;;5065524;28;20457;-71
2021/06/22 07:58:58;;;;;;;18.02;11.32;;;;;;;;;;5051875;28;20189;-71
2021/06/22 08:01:23;;;;;;;12.93;10.13;;;;;;;;;;5055007;28;20272;-71
2021/06/22 08:03:49;;;;;;;13.98;10.55;;;;;;;;;;5053313;28;20793;-71
2021/06/22 08:06:14;;;;;;;12.83;9.87;;;;;;;;;;5061314;28;20591;-71
2021/06/22 08:08:39;;;;;;;17.27;10.88;;;;;;;;;;5063538;28;20436;-71
2021/06/22 08:11:04;;;;;;;13.65;9.80;;;;;;;;;;5053948;28;21101;-69
2021/06/22 08:13:30;;;;;;;19.65;9.75;;;;;;;;;;5054060;28;20254;-71
2021/06/22 08:15:56;;;;;;;12.88;10.32;;;;;;;;;;5058968;28;20209;-72
2021/06/22 08:18:22;;;;;;;13.48;8.68;;;;;;;;;;5056755;28;20182;-71
2021/06/22 08:20:49;;;;;;;9.70;8.73;;;;;;;;;;5054128;28;20255;-71
2021/06/22 08:23:14;;;;;;;11.98;9.32;;;;;;;;;;5056835;28;20194;-71
2021/06/22 08:25:40;;;;;;;13.85;9.35;;;;;;;;;;5057603;28;20177;-71
2021/06/22 08:28:05;;;;;;;11.00;7.47;;;;;;;;;;5055935;28;20197;-70
2021/06/22 08:30:31;;;;;;;12.75;8.27;;;;;;;;;;5056483;28;20641;-71
2021/06/22 08:32:56;;;;;;;10.40;8.45;;;;;;;;;;5054549;28;20734;-71
2021/06/22 08:35:22;;;;;;;9.60;8.68;;;;;;;;;;5060013;28;20690;-71
2021/06/22 08:37:47;;;;;;;8.73;7.50;;;;;;;;;;5053827;28;22087;-71
2021/06/22 08:40:13;;;;;;;10.15;8.07;;;;;;;;;;5054554;28;20192;-71
2021/06/22 08:42:40;;;;;;;10.85;8.43;;;;;;;;;;5059841;28;20684;-71
2021/06/22 08:45:07;;;;;;;10.30;7.32;;;;;;;;;;5056694;28;20216;-71
2021/06/22 08:47:32;;;;;;;10.68;7.05;;;;;;;;;;5057431;28;20211;-72
2021/06/22 08:49:58;;;;;;;11.02;6.55;;;;;;;;;;5055957;28;21009;-73
2021/06/22 08:52:24;;;;;;;9.68;6.13;;;;;;;;;;5054919;28;20187;-72
2021/06/22 08:54:50;;;;;;;13.05;6.65;;;;;;;;;;5055380;28;21742;-71
2021/06/22 08:57:15;;;;;;;11.60;6.15;;;;;;;;;;5061107;28;20666;-71
2021/06/22 08:59:43;;;;;;;9.88;6.20;;;;;;;;;;5052815;28;20291;-72
2021/06/22 09:02:09;;;;;;;9.98;6.28;;;;;;;;;;5056569;28;20494;-72
2021/06/22 09:04:34;;;;;;;8.35;5.55;;;;;;;;;;5056757;28;20258;-71
2021/06/22 09:07:00;;;;;;;7.22;5.70;;;;;;;;;;5054506;28;21776;-71
2021/06/22 09:09:38;;;;;;;7.07;5.43;;;;;;;;;;5054657;28;20220;-71
2021/06/22 09:12:04;;;;;;;7.63;6.50;;;;;;;;;;5051543;28;20188;-72
2021/06/22 09:14:34;;;;;;;9.38;5.88;;;;;;;;;;5060117;28;20241;-71
2021/06/22 09:17:00;;;;;;;8.85;5.68;;;;;;;;;;5048923;28;20172;-72
2021/06/22 09:19:25;;;;;;;8.40;5.13;;;;;;;;;;5049813;28;20169;-71
2021/06/22 09:21:51;;;;;;;6.57;4.80;;;;;;;;;;5053429;28;20266;-71
2021/06/22 09:24:18;;;;;;;6.65;5.15;;;;;;;;;;5052883;28;20436;-71
2021/06/22 09:26:45;;;;;;;10.40;4.93;;;;;;;;;;5051592;28;20232;-73
2021/06/22 09:29:12;;;;;;;8.73;4.50;;;;;;;;;;5055949;28;20188;-71
2021/06/22 09:31:47;;;;;;;17.40;5.82;;;;;;;;;;5054840;28;20204;-71
2021/06/22 09:34:12;;;;;;;9.52;5.07;;;;;;;;;;5054414;28;20200;-72
2021/06/22 09:36:37;;;;;;;8.88;5.13;;;;;;;;;;5052770;28;20220;-73
2021/06/22 09:39:07;;;;;;;18.35;5.13;;;;;;;;;;5053189;28;20197;-72
2021/06/22 09:41:36;;;;;;;7.18;4.80;;;;;;;;;;5055539;28;20775;-71
2021/06/22 09:44:08;;;;;;;6.88;4.70;;;;;;;;;;5055424;28;20672;-71
2021/06/22 09:46:33;;;;;;;7.22;5.03;;;;;;;;;;5050973;28;20547;-72
2021/06/22 09:49:00;;;;;;;6.07;4.53;;;;;;;;;;5046393;28;20181;-72
2021/06/22 09:51:32;;;;;;;7.38;3.90;;;;;;;;;;5051632;28;21393;-72
2021/06/22 09:54:07;;;;;;;8.43;4.72;;;;;;;;;;5057109;28;20706;-72
2021/06/22 09:56:32;;;;;;;8.05;4.15;;;;;;;;;;5051938;28;20219;-72
2021/06/22 09:59:05;;;;;;;7.60;3.87;;;;;;;;;;5054320;28;20169;-72
2021/06/22 10:01:34;;;;;;;4.45;4.03;;;;;;;;;;5059360;28;20575;-71
2021/06/22 10:04:13;;;;;;;5.93;4.10;;;;;;;;;;5047300;28;20200;-71
2021/06/22 10:06:38;;;;;;;7.05;4.70;;;;;;;;;;5059027;28;20314;-71
2021/06/22 10:09:04;;;;;;;10.57;4.50;;;;;;;;;;5058149;28;20659;-73
2021/06/22 10:11:30;;;;;;;5.07;4.10;;;;;;;;;;5054248;28;20181;-71
2021/06/22 10:13:55;;;;;;;7.65;4.05;;;;;;;;;;5052170;28;20205;-72
2021/06/22 10:16:25;;;;;;;7.35;3.88;;;;;;;;;;5059584;28;20212;-72
2021/06/22 10:18:51;;;;;;;5.40;3.95;;;;;;;;;;5054491;28;20248;-72
2021/06/22 10:21:16;;;;;;;7.10;3.72;;;;;;;;;;5059391;28;20219;-71
2021/06/22 10:23:42;;;;;;;7.63;4.15;;;;;;;;;;5050162;28;20197;-71
2021/06/22 10:26:07;;;;;;;7.63;4.53;;;;;;;;;;5054400;28;20185;-71
2021/06/22 10:28:33;;;;;;;6.13;3.85;;;;;;;;;;5051640;28;20221;-73
2021/06/22 10:30:59;;;;;;;6.03;4.60;;;;;;;;;;5050340;28;20189;-72
2021/06/22 10:33:24;;;;;;;5.22;4.32;;;;;;;;;;5049106;28;20265;-72
2021/06/22 10:35:49;;;;;;;7.30;4.65;;;;;;;;;;5053687;28;20267;-71
2021/06/22 10:38:16;;;;;;;6.20;4.35;;;;;;;;;;5053005;28;20268;-72
2021/06/22 10:40:41;;;;;;;6.45;4.28;;;;;;;;;;5060864;28;20316;-71
2021/06/22 10:43:07;;;;;;;8.55;3.90;;;;;;;;;;5052973;28;20181;-72
2021/06/22 10:45:32;;;;;;;6.32;3.70;;;;;;;;;;5053050;28;20242;-71
2021/06/22 10:47:59;;;;;;;5.40;3.17;;;;;;;;;;5055451;28;20199;-72
2021/06/22 10:50:24;;;;;;;4.50;3.55;;;;;;;;;;5058990;28;20622;-73
2021/06/22 10:52:52;;;;;;;5.10;3.00;;;;;;;;;;5052464;28;20178;-71
2021/06/22 10:55:23;;;;;;;8.18;3.88;;;;;;;;;;5055287;28;20209;-71
2021/06/22 10:58:08;;;;;;;4.40;3.00;;;;;;;;;;5052632;28;20655;-72
2021/06/22 11:00:42;;;;;;;8.60;3.38;;;;;;;;;;5051302;28;20435;-71
2021/06/22 11:03:08;;;;;;;7.78;4.22;;;;;;;;;;5049633;28;20445;-72
2021/06/22 11:05:34;;;;;;;5.13;3.13;;;;;;;;;;5053526;28;20235;-72
2021/06/22 11:08:12;;;;;;;5.68;3.40;;;;;;;;;;5060951;28;20649;-71
2021/06/22 11:10:55;;;;;;;6.68;4.40;;;;;;;;;;5057655;28;20172;-72
2021/06/22 11:13:38;;;;;;;5.25;4.30;;;;;;;;;;5053434;28;20196;-71
2021/06/22 11:16:06;;;;;;;5.85;3.15;;;;;;;;;;5062475;28;20262;-71
2021/06/22 11:18:54;;;;;;;5.40;3.33;;;;;;;;;;5055325;28;20224;-71
2021/06/22 11:21:20;;;;;;;5.88;3.40;;;;;;;;;;5051528;28;20224;-72
2021/06/22 11:24:05;;;;;;;5.45;3.33;;;;;;;;;;5055082;28;20221;-71
2021/06/22 11:26:31;;;;;;;5.40;3.80;;;;;;;;;;5057340;28;20177;-71
2021/06/22 11:29:01;;;;;;;9.65;3.70;;;;;;;;;;5054937;28;20181;-71
2021/06/22 11:31:32;;;;;;;4.68;3.47;;;;;;;;;;5058854;28;20206;-71
2021/06/22 11:34:12;;;;;;;4.57;3.17;;;;;;;;;;5062945;28;20282;-70
2021/06/22 11:36:45;;;;;;;5.55;3.35;;;;;;;;;;5054114;28;20204;-71
2021/06/22 11:39:19;;;;;;;6.32;3.22;;;;;;;;;;5081223;28;20187;-71
2021/06/22 11:42:03;;;;;;;6.82;2.80;;;;;;;;;;5087381;28;20176;-70
2021/06/22 11:44:29;;;;;;;10.27;3.40;;;;;;;;;;5087557;28;20205;-70
2021/06/22 11:46:54;;;;;;;5.20;3.22;;;;;;;;;;5085536;28;20300;-70
2021/06/22 11:49:19;;;;;;;8.07;3.58;;;;;;;;;;5085358;28;20229;-70
2021/06/22 11:51:47;;;;;;;6.40;3.72;;;;;;;;;;5083424;28;20184;-70
2021/06/22 11:54:32;;;;;;;9.38;4.05;;;;;;;;;;5083592;28;20231;-71
2021/06/22 11:56:58;;;;;;;6.25;3.10;;;;;;;;;;5085365;28;20204;-71
2021/06/22 11:59:24;;;;;;;6.97;3.65;;;;;;;;;;5078992;28;20556;-70
2021/06/22 12:01:49;;;;;;;5.40;4.05;;;;;;;;;;5062184;28;20249;-71
2021/06/22 12:04:14;;;;;;;6.25;3.65;;;;;;;;;;5053776;28;20274;-71
2021/06/22 12:06:40;;;;;;;5.13;3.20;;;;;;;;;;5063484;28;20180;-72
2021/06/22 12:09:18;;;;;;;9.85;3.78;;;;;;;;;;5057026;28;20513;-71
2021/06/22 12:11:45;;;;;;;8.27;3.88;;;;;;;;;;5054832;28;20177;-71
2021/06/22 12:14:17;;;;;;;11.57;4.72;;;;;;;;;;5055591;28;20196;-71
2021/06/22 12:16:44;;;;;;;6.90;4.00;;;;;;;;;;5057155;28;20213;-72
2021/06/22 12:19:13;;;;;;;9.65;3.78;;;;;;;;;;5053548;28;20260;-71
2021/06/22 12:21:39;;;;;;;6.97;3.75;;;;;;;;;;5058412;28;20189;-71
2021/06/22 12:24:06;;;;;;;7.85;3.70;;;;;;;;;;5049780;28;20204;-71
2021/06/22 12:26:31;;;;;;;6.90;3.40;;;;;;;;;;5055365;28;20176;-71
2021/06/22 12:28:57;;;;;;;8.23;3.33;;;;;;;;;;5052520;28;20188;-71
2021/06/22 12:31:22;;;;;;;6.43;3.42;;;;;;;;;;5051734;28;20185;-71
2021/06/22 12:33:47;;;;;;;7.20;3.60;;;;;;;;;;5053283;28;20273;-71
2021/06/22 12:36:19;;;;;;;12.52;3.95;;;;;;;;;;5053059;28;20287;-72
2021/06/22 12:38:45;;;;;;;10.90;3.88;;;;;;;;;;5055463;28;20164;-72
2021/06/22 12:41:10;;;;;;;5.43;3.63;;;;;;;;;;5058465;28;20196;-71
2021/06/22 12:43:49;;;;;;;6.22;3.80;;;;;;;;;;5052081;28;20494;-71
2021/06/22 12:46:33;;;;;;;8.15;3.40;;;;;;;;;;5053573;28;20181;-71
2021/06/22 12:49:00;;;;;;;7.97;3.67;;;;;;;;;;5052421;28;20187;-71
2021/06/22 12:51:30;;;;;;;7.78;4.35;;;;;;;;;;5054871;28;20192;-70
2021/06/22 12:53:56;;;;;;;6.72;3.67;;;;;;;;;;5054731;28;20307;-71
2021/06/22 12:56:22;;;;;;;8.20;3.85;;;;;;;;;;5053389;28;20730;-71
2021/06/22 12:58:48;;;;;;;6.15;3.85;;;;;;;;;;5064795;28;20259;-71
2021/06/22 13:01:26;;;;;;;5.80;4.07;;;;;;;;;;5056657;28;20189;-71
2021/06/22 13:03:51;;;;;;;6.68;3.60;;;;;;;;;;5052169;28;20189;-71
2021/06/22 13:06:27;;;;;;;6.07;3.88;;;;;;;;;;5052264;28;20215;-70
2021/06/22 13:08:57;;;;;;;8.93;4.38;;;;;;;;;;5052675;28;20241;-70
2021/06/22 13:11:28;;;;;;;9.82;4.78;;;;;;;;;;5061897;28;20169;-71
2021/06/22 13:14:13;;;;;;;7.65;4.70;;;;;;;;;;5051882;28;20223;-71
2021/06/22 13:16:39;;;;;;;6.43;4.43;;;;;;;;;;5060974;28;20205;-71
2021/06/22 13:19:06;;;;;;;8.00;4.45;;;;;;;;;;5052864;28;20184;-71
2021/06/22 13:21:37;;;;;;;6.85;4.63;;;;;;;;;;5053502;28;20183;-70
2021/06/22 13:24:03;;;;;;;5.18;4.05;;;;;;;;;;5052356;28;20219;-70
2021/06/22 13:26:28;;;;;;;7.10;4.60;;;;;;;;;;5051907;28;20677;-72
2021/06/22 13:29:02;;;;;;;8.25;4.55;;;;;;;;;;5051878;28;21317;-72
2021/06/22 13:31:28;;;;;;;8.15;5.13;;;;;;;;;;5051270;28;20558;-72
2021/06/22 13:34:04;;;;;;;8.57;4.57;;;;;;;;;;5055828;28;20239;-72
2021/06/22 13:36:29;;;;;;;7.00;5.00;;;;;;;;;;5055033;28;20196;-71
2021/06/22 13:39:05;;;;;;;11.68;5.03;;;;;;;;;;5051668;28;20275;-70
2021/06/22 13:41:31;;;;;;;7.55;4.60;;;;;;;;;;5054832;28;20173;-73
2021/06/22 13:43:56;;;;;;;6.72;4.50;;;;;;;;;;5050964;28;20677;-72
2021/06/22 13:46:25;;;;;;;8.57;4.85;;;;;;;;;;5051270;28;20178;-70
2021/06/22 13:48:51;;;;;;;10.18;5.03;;;;;;;;;;5062356;28;20286;-73
2021/06/22 13:51:23;;;;;;;9.07;4.57;;;;;;;;;;5059124;28;20259;-71
2021/06/22 13:53:49;;;;;;;7.80;5.03;;;;;;;;;;5052388;28;20326;-73
2021/06/22 13:56:16;;;;;;;17.38;5.93;;;;;;;;;;5053041;28;20635;-71
2021/06/22 13:58:42;;;;;;;8.18;5.15;;;;;;;;;;5051826;28;20263;-70
2021/06/22 14:01:08;;;;;;;7.80;5.38;;;;;;;;;;5051264;28;21807;-70
2021/06/22 14:03:33;;;;;;;8.02;5.35;;;;;;;;;;5053439;28;20287;-71
2021/06/22 14:05:58;;;;;;;10.90;5.80;;;;;;;;;;5046909;28;20180;-71
2021/06/22 14:08:24;;;;;;;8.13;5.43;;;;;;;;;;5050492;28;20192;-71
2021/06/22 14:10:50;;;;;;;8.52;5.60;;;;;;;;;;5055046;28;20189;-71
2021/06/22 14:13:16;;;;;;;6.97;5.05;;;;;;;;;;5050798;28;20923;-71
2021/06/22 14:15:42;;;;;;;9.25;5.78;;;;;;;;;;5056991;28;20243;-70
2021/06/22 14:18:07;;;;;;;12.73;5.72;;;;;;;;;;5055027;28;20176;-71
2021/06/22 14:20:33;;;;;;;8.18;5.30;;;;;;;;;;5053205;28;20166;-71
2021/06/22 14:22:58;;;;;;;8.90;5.85;;;;;;;;;;5052704;28;20308;-71
2021/06/22 14:25:24;;;;;;;7.80;5.78;;;;;;;;;;5052401;28;20211;-71
2021/06/22 14:27:50;;;;;;;8.73;5.95;;;;;;;;;;5052178;28;20190;-71
2021/06/22 14:30:15;;;;;;;7.32;5.68;;;;;;;;;;5050934;28;20221;-72
2021/06/22 14:32:41;;;;;;;8.65;6.32;;;;;;;;;;5047795;28;20282;-70